Time;durP1;ratioP1;P1;durP2;ratioP2;P2;SDS_P1;SDS_P2;PMS_P1;PMS_P2;Temp;Humidity;BMP_temperature;BMP_pressure;BME280_temperature;BME280_humidity;BME280_pressure;Samples;Min_cycle;Max_cycle;Signal;HPM_P1;HPM_P2
2022/03/28 00:01:32;;;;;;;9.00;5.72;;;;;;;12.04;61.68;101450.25;5015128;28;20046;-68
2022/03/28 00:03:57;;;;;;;7.18;5.40;;;;;;;11.99;61.81;101455.13;5013353;28;20517;-68
2022/03/28 00:06:23;;;;;;;8.38;5.80;;;;;;;11.98;61.93;101445.50;5012816;28;20057;-68
2022/03/28 00:08:49;;;;;;;7.13;5.43;;;;;;;11.93;61.87;101441.59;5016618;28;20050;-69
2022/03/28 00:11:15;;;;;;;8.80;6.20;;;;;;;11.86;61.98;101442.09;5015709;28;20026;-68
2022/03/28 00:13:40;;;;;;;9.23;5.93;;;;;;;11.83;62.37;101437.09;5010777;28;20841;-69
2022/03/28 00:16:06;;;;;;;7.50;5.22;;;;;;;11.69;61.84;101443.59;5015210;28;20042;-69
2022/03/28 00:18:32;;;;;;;6.95;4.72;;;;;;;11.45;61.70;101441.31;5014142;28;20102;-69
2022/03/28 00:20:57;;;;;;;6.70;4.43;;;;;;;11.24;61.83;101441.38;5010081;28;20129;-69
2022/03/28 00:23:23;;;;;;;8.55;5.20;;;;;;;11.09;62.32;101439.25;5013033;28;20037;-68
2022/03/28 00:25:49;;;;;;;5.63;4.45;;;;;;;10.93;62.60;101439.72;5010882;28;20092;-68
2022/03/28 00:28:14;;;;;;;8.02;5.35;;;;;;;10.79;62.94;101439.09;5012382;28;20425;-68
2022/03/28 00:30:40;;;;;;;6.70;5.00;;;;;;;10.65;62.99;101436.78;5016340;28;20097;-69
2022/03/28 00:33:06;;;;;;;5.68;4.15;;;;;;;10.52;63.09;101439.63;5011877;28;20117;-68
2022/03/28 00:35:32;;;;;;;6.18;4.53;;;;;;;10.41;63.04;101435.22;5011656;28;20036;-68
2022/03/28 00:37:57;;;;;;;5.75;3.88;;;;;;;10.32;63.06;101429.88;5013041;28;20093;-69
2022/03/28 00:40:23;;;;;;;4.97;3.10;;;;;;;10.23;63.01;101427.97;5015968;28;20050;-69
2022/03/28 00:42:49;;;;;;;5.53;3.33;;;;;;;10.11;62.67;101435.94;5010232;28;20453;-68
2022/03/28 00:45:15;;;;;;;3.92;2.90;;;;;;;10.00;63.10;101434.19;5011435;28;20030;-68
2022/03/28 00:47:42;;;;;;;4.15;2.95;;;;;;;9.91;63.09;101427.00;5028273;28;20034;-68
2022/03/28 00:50:09;;;;;;;4.68;3.30;;;;;;;9.83;63.32;101432.09;5012915;28;20038;-69
2022/03/28 00:52:35;;;;;;;4.70;2.85;;;;;;;9.73;63.36;101423.22;5008323;28;20038;-69
2022/03/28 00:55:01;;;;;;;4.05;2.80;;;;;;;9.65;63.89;101425.63;5013260;28;20064;-68
2022/03/28 00:57:27;;;;;;;5.30;3.58;;;;;;;9.53;64.13;101414.25;5004594;28;20038;-69
2022/03/28 00:59:53;;;;;;;5.00;3.72;;;;;;;9.41;64.21;101418.72;5014416;28;20388;-68
2022/03/28 01:02:18;;;;;;;6.15;3.90;;;;;;;9.30;64.69;101411.66;5011150;28;20033;-68
2022/03/28 01:04:43;;;;;;;7.57;3.83;;;;;;;9.22;64.78;101423.78;5012649;28;20030;-68
2022/03/28 01:07:09;;;;;;;5.25;3.25;;;;;;;9.16;65.01;101416.38;5012849;28;20096;-68
2022/03/28 01:09:34;;;;;;;3.95;2.92;;;;;;;9.14;65.10;101408.56;5010376;28;20718;-68
2022/03/28 01:12:01;;;;;;;6.43;4.28;;;;;;;9.12;66.01;101407.84;5022514;23;20145;-69
2022/03/28 01:14:27;;;;;;;7.40;4.60;;;;;;;9.11;66.75;101407.00;5011267;28;20033;-69
2022/03/28 01:19:36;;;;;;;7.68;5.57;;;;;;;9.20;67.55;101405.44;5009615;28;20041;-70
2022/03/28 01:22:02;;;;;;;7.72;4.90;;;;;;;9.21;67.57;101406.28;5007747;28;20050;-70
2022/03/28 01:24:27;;;;;;;6.93;4.78;;;;;;;9.18;67.46;101399.44;5010962;28;20045;-70
2022/03/28 01:26:53;;;;;;;7.47;4.78;;;;;;;9.07;67.66;101400.28;5022865;28;20042;-70
2022/03/28 01:29:19;;;;;;;7.57;5.07;;;;;;;8.95;67.99;101397.78;5003628;28;20057;-70
2022/03/28 01:31:44;;;;;;;7.70;5.63;;;;;;;8.84;68.14;101401.22;5008898;28;20034;-70
2022/03/28 01:34:20;;;;;;;8.43;5.80;;;;;;;8.73;68.35;101393.34;5007575;28;20502;-70
2022/03/28 01:36:47;;;;;;;7.85;5.65;;;;;;;8.64;68.08;101385.16;5009523;28;20053;-70
2022/03/28 01:39:17;;;;;;;7.82;5.32;;;;;;;8.55;67.97;101387.66;5009851;28;20057;-70
2022/03/28 01:41:43;;;;;;;6.67;4.53;;;;;;;8.43;68.11;101385.00;5009852;28;20065;-70
2022/03/28 01:44:09;;;;;;;6.82;5.00;;;;;;;8.34;68.04;101377.75;5008863;28;20368;-69
2022/03/28 01:46:44;;;;;;;5.97;4.30;;;;;;;8.24;68.22;101372.34;5009287;28;20394;-69
2022/03/28 01:49:11;;;;;;;8.93;6.03;;;;;;;8.16;69.16;101382.63;5021311;28;20050;-69
2022/03/28 01:51:36;;;;;;;7.90;5.18;;;;;;;8.15;68.95;101388.00;5009299;28;20061;-69
2022/03/28 01:54:02;;;;;;;7.13;4.70;;;;;;;8.16;68.87;101372.09;5009335;28;20043;-69
2022/03/28 01:56:28;;;;;;;7.55;4.72;;;;;;;8.20;69.19;101375.31;5009238;28;20038;-69
2022/03/28 01:58:54;;;;;;;7.65;5.05;;;;;;;8.23;69.54;101380.38;5008951;28;20073;-69
2022/03/28 02:01:19;;;;;;;5.90;4.20;;;;;;;8.25;69.00;101371.41;5009451;28;20528;-70
2022/03/28 02:03:45;;;;;;;5.47;3.97;;;;;;;8.24;69.23;101360.97;5008501;28;20156;-70
2022/03/28 02:06:10;;;;;;;8.90;6.63;;;;;;;8.28;71.92;101359.78;5008991;28;20431;-70
2022/03/28 02:08:35;;;;;;;9.23;6.45;;;;;;;8.37;71.12;101363.53;5009458;28;20121;-69
2022/03/28 02:11:01;;;;;;;9.63;7.22;;;;;;;8.39;70.54;101351.91;5009506;28;20084;-69
2022/03/28 02:13:26;;;;;;;10.35;6.93;;;;;;;8.40;72.45;101358.06;5009089;28;20034;-69
2022/03/28 02:15:51;;;;;;;11.20;6.82;;;;;;;8.45;71.64;101351.47;5002534;28;20041;-70
2022/03/28 02:18:16;;;;;;;10.43;7.20;;;;;;;8.48;72.24;101350.38;5007935;28;20045;-69
2022/03/28 02:20:42;;;;;;;8.18;5.63;;;;;;;8.48;71.67;101355.66;5007561;28;20058;-69
2022/03/28 02:23:07;;;;;;;7.88;5.43;;;;;;;8.48;71.06;101353.03;5007215;28;20517;-69
2022/03/28 02:25:37;;;;;;;8.30;5.40;;;;;;;8.45;70.98;101355.91;4997469;28;20152;-69
2022/03/28 02:28:05;;;;;;;5.68;3.97;;;;;;;8.40;70.65;101345.72;5007174;28;20049;-69
2022/03/28 02:30:31;;;;;;;7.95;5.47;;;;;;;8.38;71.44;101352.84;5008882;28;20518;-69
2022/03/28 02:32:57;;;;;;;7.57;5.38;;;;;;;8.38;71.18;101352.03;5009077;28;20102;-69
2022/03/28 02:35:23;;;;;;;6.68;5.03;;;;;;;8.34;71.18;101345.28;5008949;28;20030;-69
2022/03/28 02:37:48;;;;;;;8.35;5.43;;;;;;;8.29;71.20;101341.25;5008634;28;20056;-69
2022/03/28 02:40:13;;;;;;;6.03;4.40;;;;;;;8.24;70.81;101338.09;5007514;28;20025;-70
2022/03/28 02:42:39;;;;;;;6.65;4.63;;;;;;;8.20;70.56;101343.72;5008171;28;21762;-69
2022/03/28 02:45:05;;;;;;;6.10;3.83;;;;;;;8.13;70.54;101340.72;4999861;28;20393;-69
2022/03/28 02:47:31;;;;;;;5.70;3.85;;;;;;;8.04;70.93;101341.41;5008943;28;20409;-69
2022/03/28 02:49:56;;;;;;;5.55;3.90;;;;;;;7.98;70.66;101342.69;5002873;28;20037;-68
2022/03/28 02:52:22;;;;;;;7.15;4.50;;;;;;;7.94;70.63;101338.63;5007849;28;20033;-68
2022/03/28 02:54:48;;;;;;;6.45;3.90;;;;;;;7.90;70.87;101331.91;5008339;28;20038;-69
2022/03/28 02:57:13;;;;;;;5.03;3.40;;;;;;;7.85;70.67;101326.97;5008435;28;20036;-69
2022/03/28 02:59:39;;;;;;;7.30;4.97;;;;;;;7.83;70.94;101333.31;5008202;28;20045;-70
2022/03/28 03:02:04;;;;;;;5.78;3.92;;;;;;;7.77;70.86;101336.38;5004802;28;20050;-69
2022/03/28 03:04:31;;;;;;;5.53;3.58;;;;;;;7.70;70.82;101328.13;5006604;28;20065;-69
2022/03/28 03:06:57;;;;;;;6.75;4.10;;;;;;;7.62;70.92;101325.22;4998746;28;20168;-69
2022/03/28 03:09:22;;;;;;;5.88;4.28;;;;;;;7.54;71.04;101330.22;5002187;28;20034;-69
2022/03/28 03:11:47;;;;;;;6.18;4.22;;;;;;;7.46;71.48;101325.50;5008246;28;20053;-69
2022/03/28 03:14:13;;;;;;;6.15;4.22;;;;;;;7.39;71.70;101319.84;5007030;28;20030;-69
2022/03/28 03:16:40;;;;;;;5.95;3.78;;;;;;;7.33;71.27;101320.28;5008625;28;20034;-69
2022/03/28 03:19:06;;;;;;;5.00;3.35;;;;;;;7.28;71.55;101327.66;5005081;28;20038;-68
2022/03/28 03:21:31;;;;;;;6.60;3.75;;;;;;;7.23;71.34;101333.25;5002455;28;20509;-68
2022/03/28 03:23:56;;;;;;;5.15;3.55;;;;;;;7.17;71.44;101330.22;5005840;28;20438;-68
2022/03/28 03:26:21;;;;;;;4.10;2.78;;;;;;;7.10;71.46;101321.09;5007648;28;20253;-68
2022/03/28 03:28:47;;;;;;;3.92;2.58;;;;;;;7.02;71.39;101327.75;5007239;28;20405;-69
2022/03/28 03:31:12;;;;;;;4.15;2.95;;;;;;;6.96;71.33;101316.81;5008011;28;20248;-68
2022/03/28 03:33:38;;;;;;;4.65;3.17;;;;;;;6.91;71.63;101313.66;5008532;28;20075;-68
2022/03/28 03:36:04;;;;;;;4.15;2.80;;;;;;;6.89;71.56;101310.31;5004195;28;20042;-69
2022/03/28 03:38:30;;;;;;;3.90;2.80;;;;;;;6.84;71.54;101315.91;5008199;28;20041;-69
2022/03/28 03:40:55;;;;;;;3.47;2.67;;;;;;;6.78;71.66;101309.28;5006654;28;20034;-69
2022/03/28 03:43:21;;;;;;;4.80;3.13;;;;;;;6.73;71.89;101315.81;5007899;28;20532;-69
2022/03/28 03:45:47;;;;;;;4.28;3.08;;;;;;;6.66;71.93;101306.69;5008526;28;20038;-69
2022/03/28 03:48:12;;;;;;;7.15;4.30;;;;;;;6.56;73.08;101314.38;5004203;28;20046;-69
2022/03/28 03:50:38;;;;;;;6.00;3.95;;;;;;;6.47;72.46;101304.50;5007970;28;20054;-69
2022/03/28 03:53:03;;;;;;;4.53;3.38;;;;;;;6.40;72.64;101298.81;5007905;28;20048;-69
2022/03/28 03:55:29;;;;;;;5.95;3.67;;;;;;;6.36;72.82;101298.22;5010385;28;20042;-70
2022/03/28 03:57:54;;;;;;;5.18;3.50;;;;;;;6.33;72.74;101305.44;5011702;28;20033;-68
2022/03/28 04:00:19;;;;;;;4.57;3.35;;;;;;;6.30;72.96;101301.25;5010722;28;20038;-68
2022/03/28 04:02:45;;;;;;;6.35;4.28;;;;;;;6.28;73.22;101297.03;5011878;28;20049;-68
2022/03/28 04:05:10;;;;;;;5.55;3.67;;;;;;;6.24;73.05;101296.41;5011569;28;20038;-68
2022/03/28 04:07:35;;;;;;;5.43;3.35;;;;;;;6.22;73.18;101294.81;5006365;28;20053;-68
2022/03/28 04:10:02;;;;;;;5.65;4.28;;;;;;;6.16;73.79;101299.53;5010946;28;20107;-68
2022/03/28 04:12:28;;;;;;;6.22;4.40;;;;;;;6.12;74.13;101300.69;5010571;28;20045;-68
2022/03/28 04:14:57;;;;;;;6.32;4.40;;;;;;;6.10;73.92;101296.50;5011392;28;20486;-68
2022/03/28 04:17:23;;;;;;;5.85;3.97;;;;;;;6.06;73.54;101301.13;5011688;28;20042;-68
2022/03/28 04:19:48;;;;;;;5.03;3.33;;;;;;;6.03;73.75;101297.84;5011278;28;20045;-68
2022/03/28 04:22:13;;;;;;;5.50;3.63;;;;;;;6.02;73.97;101294.38;5007392;28;20153;-68
2022/03/28 04:24:39;;;;;;;5.28;3.30;;;;;;;6.00;73.64;101300.69;5004874;28;20036;-69
2022/03/28 04:27:04;;;;;;;5.20;3.33;;;;;;;6.00;73.91;101300.69;5005554;28;20453;-69
2022/03/28 04:29:29;;;;;;;5.90;3.90;;;;;;;6.01;74.05;101305.84;5007594;28;20033;-69
2022/03/28 04:31:55;;;;;;;5.80;3.80;;;;;;;6.00;74.39;101309.41;5010728;28;20042;-70
2022/03/28 04:34:20;;;;;;;6.20;4.07;;;;;;;6.00;74.84;101316.44;5010426;28;20038;-69
2022/03/28 04:36:45;;;;;;;5.95;3.90;;;;;;;5.97;74.49;101308.78;5010646;28;20049;-69
2022/03/28 04:39:11;;;;;;;4.95;3.45;;;;;;;5.94;74.48;101312.44;5010814;28;20065;-69
2022/03/28 04:41:36;;;;;;;6.13;3.88;;;;;;;5.92;74.45;101306.44;5010628;28;20042;-69
2022/03/28 04:44:02;;;;;;;4.80;3.33;;;;;;;5.87;74.77;101311.97;5009459;28;20045;-69
2022/03/28 04:46:27;;;;;;;7.18;3.65;;;;;;;5.84;74.62;101314.81;5003370;28;20092;-69
2022/03/28 04:48:52;;;;;;;4.50;3.20;;;;;;;5.82;74.52;101313.25;4999093;28;20042;-70
2022/03/28 04:51:18;;;;;;;4.82;3.50;;;;;;;5.79;74.68;101318.66;5008768;28;20387;-70
2022/03/28 04:53:43;;;;;;;5.85;3.80;;;;;;;5.72;74.82;101316.47;5009955;28;20030;-70
2022/03/28 04:56:08;;;;;;;4.68;3.58;;;;;;;5.66;74.57;101324.72;5010177;28;20061;-70
2022/03/28 04:58:34;;;;;;;5.28;3.40;;;;;;;5.63;74.67;101314.44;5007949;28;20103;-70
2022/03/28 05:00:59;;;;;;;5.43;3.58;;;;;;;5.61;74.89;101320.75;5010231;28;20085;-70
2022/03/28 05:03:24;;;;;;;5.78;3.42;;;;;;;5.60;75.00;101325.16;5007140;28;20040;-70
2022/03/28 05:05:49;;;;;;;6.88;3.92;;;;;;;5.59;74.91;101315.56;5009867;28;20502;-70
2022/03/28 05:08:15;;;;;;;5.10;3.60;;;;;;;5.58;75.13;101321.78;4998254;28;20038;-71
2022/03/28 05:10:41;;;;;;;6.85;4.07;;;;;;;5.58;75.36;101326.16;4997965;28;20525;-70
2022/03/28 05:13:06;;;;;;;6.05;4.22;;;;;;;5.56;75.38;101328.91;5011141;28;20046;-70
2022/03/28 05:15:31;;;;;;;8.63;4.97;;;;;;;5.56;75.55;101318.41;5009824;28;20120;-71
2022/03/28 05:17:58;;;;;;;9.45;6.05;;;;;;;5.59;75.83;101323.44;5010708;28;20049;-73
2022/03/28 05:20:23;;;;;;;8.05;4.88;;;;;;;5.60;75.97;101314.66;5008283;28;20048;-70
2022/03/28 05:22:48;;;;;;;6.40;4.60;;;;;;;5.62;76.29;101322.41;5010258;28;20406;-70
2022/03/28 05:25:13;;;;;;;7.47;4.80;;;;;;;5.61;76.33;101323.38;5011118;28;20402;-70
2022/03/28 05:27:45;;;;;;;7.45;4.43;;;;;;;5.60;75.91;101319.03;5011315;28;20037;-70
2022/03/28 05:30:12;;;;;;;7.10;3.97;;;;;;;5.62;76.01;101320.63;4992963;28;20541;-70
2022/03/28 05:32:38;;;;;;;7.25;4.72;;;;;;;5.64;75.98;101318.75;5009753;28;20311;-70
2022/03/28 05:35:06;;;;;;;6.40;4.28;;;;;;;5.67;75.77;101326.44;5011537;28;20069;-70
2022/03/28 05:37:31;;;;;;;5.88;3.88;;;;;;;5.69;76.25;101332.38;5011103;28;20041;-71
2022/03/28 05:39:56;;;;;;;6.90;4.20;;;;;;;5.70;75.94;101323.59;5010830;28;20401;-70
2022/03/28 05:42:21;;;;;;;8.95;4.85;;;;;;;5.74;75.74;101314.59;5010697;28;20042;-70
2022/03/28 05:44:47;;;;;;;8.80;6.10;;;;;;;5.82;76.41;101318.50;5011193;28;20522;-71
2022/03/28 05:47:12;;;;;;;8.43;5.57;;;;;;;5.90;76.67;101316.19;5011423;28;20049;-71
2022/03/28 05:49:37;;;;;;;8.82;5.82;;;;;;;5.97;77.21;101327.16;5010693;28;20064;-70
2022/03/28 05:52:04;;;;;;;8.15;5.82;;;;;;;5.99;77.50;101326.09;5015579;28;20084;-71
2022/03/28 05:54:29;;;;;;;8.27;5.60;;;;;;;5.99;77.12;101331.34;5015773;28;20034;-70
2022/03/28 05:56:54;;;;;;;8.48;4.75;;;;;;;6.04;77.01;101333.69;5006650;28;20092;-69
2022/03/28 05:59:20;;;;;;;9.90;6.15;;;;;;;6.12;76.95;101334.00;5009019;28;20045;-70
2022/03/28 06:01:46;;;;;;;10.95;7.75;;;;;;;6.27;77.93;101334.75;5008733;28;20049;-71
2022/03/28 06:04:12;;;;;;;11.25;7.18;;;;;;;6.52;77.48;101337.38;5008476;28;20038;-70
2022/03/28 06:06:37;;;;;;;9.55;6.38;;;;;;;6.92;77.86;101336.41;5005135;28;20042;-70
2022/03/28 06:09:03;;;;;;;9.45;6.55;;;;;;;7.37;77.92;101327.00;5009026;28;20533;-70
2022/03/28 06:11:28;;;;;;;11.27;6.80;;;;;;;7.87;77.81;101327.72;5008822;28;20042;-70
2022/03/28 06:13:57;;;;;;;9.40;6.75;;;;;;;8.35;77.61;101333.81;5007970;28;20044;-71
2022/03/28 06:16:22;;;;;;;10.38;7.18;;;;;;;8.78;77.19;101330.53;5008226;28;20041;-71
2022/03/28 06:18:47;;;;;;;12.73;8.20;;;;;;;9.14;76.15;101335.50;5005648;28;20038;-71
2022/03/28 06:21:13;;;;;;;10.38;7.05;;;;;;;9.54;75.60;101331.47;5007959;28;20034;-71
2022/03/28 06:23:38;;;;;;;8.48;5.82;;;;;;;9.96;75.21;101329.72;5007243;28;20037;-71
2022/03/28 06:26:04;;;;;;;10.02;6.47;;;;;;;10.46;74.68;101333.53;5002749;28;20030;-71
2022/03/28 06:28:30;;;;;;;10.48;6.13;;;;;;;10.91;74.00;101331.34;5006132;28;20494;-71
2022/03/28 06:30:56;;;;;;;9.18;6.10;;;;;;;11.33;72.71;101340.97;5008579;28;20037;-70
2022/03/28 06:33:21;;;;;;;8.90;6.43;;;;;;;11.76;71.53;101339.75;5001909;28;20026;-71
2022/03/28 06:35:47;;;;;;;10.25;7.53;;;;;;;12.09;70.33;101346.44;5009276;28;20494;-72
2022/03/28 06:38:13;;;;;;;11.38;7.72;;;;;;;12.48;69.32;101351.66;5008126;28;20064;-72
2022/03/28 06:40:38;;;;;;;11.80;8.00;;;;;;;12.80;68.18;101351.28;5008747;28;20065;-71
2022/03/28 06:43:04;;;;;;;11.60;7.47;;;;;;;13.09;66.92;101350.31;5006499;28;20044;-71
2022/03/28 06:45:31;;;;;;;12.30;8.13;;;;;;;13.24;65.43;101348.00;5007638;28;20038;-71
2022/03/28 06:47:57;;;;;;;10.10;7.38;;;;;;;13.53;64.95;101345.16;5009079;28;20421;-71
2022/03/28 06:50:24;;;;;;;10.25;6.80;;;;;;;13.83;64.51;101341.31;5007855;28;20041;-71
2022/03/28 06:52:51;;;;;;;12.82;7.20;;;;;;;14.13;63.51;101345.34;5009157;28;20057;-71
2022/03/28 06:55:16;;;;;;;10.57;7.30;;;;;;;14.23;61.49;101345.28;5007178;28;20038;-71
2022/03/28 06:57:41;;;;;;;9.25;6.57;;;;;;;14.40;61.66;101340.91;5000448;28;20064;-71
2022/03/28 07:00:10;;;;;;;12.52;7.90;;;;;;;14.58;60.68;101344.34;4999828;28;20042;-71
2022/03/28 07:02:36;;;;;;;11.45;7.15;;;;;;;14.70;59.92;101344.91;5008013;28;20034;-72
2022/03/28 07:05:01;;;;;;;10.40;8.02;;;;;;;14.74;59.00;101340.09;5004553;28;20096;-71
2022/03/28 07:07:26;;;;;;;9.90;7.95;;;;;;;14.88;58.92;101333.34;5008829;28;20426;-72
2022/03/28 07:09:52;;;;;;;11.65;8.13;;;;;;;15.05;58.43;101335.06;5008386;28;20144;-72
2022/03/28 07:12:17;;;;;;;15.43;10.60;;;;;;;15.22;57.49;101327.97;5037224;23;20042;-73
2022/03/28 07:14:42;;;;;;;16.27;10.40;;;;;;;15.20;56.68;101330.78;5027343;28;20501;-73
2022/03/28 07:17:09;;;;;;;13.30;9.95;;;;;;;15.31;56.84;101320.84;5026454;28;20037;-73
2022/03/28 07:19:34;;;;;;;12.07;8.73;;;;;;;15.64;56.67;101322.53;5024818;28;20034;-73
2022/03/28 07:22:00;;;;;;;11.73;8.57;;;;;;;15.98;56.48;101318.09;5026031;28;20144;-73
2022/03/28 07:24:25;;;;;;;11.05;7.97;;;;;;;16.33;55.86;101319.53;5026997;28;20041;-73
2022/03/28 07:26:53;;;;;;;12.63;8.23;;;;;;;16.64;55.48;101321.47;5027939;28;20095;-73
2022/03/28 07:29:20;;;;;;;10.77;7.88;;;;;;;16.92;54.66;101322.72;5027451;28;20060;-73
2022/03/28 07:31:45;;;;;;;12.73;9.07;;;;;;;17.05;53.07;101321.31;5032410;28;20042;-73
2022/03/28 07:36:55;;;;;;;6.80;5.70;;;;;;;17.38;53.11;101317.44;5031859;28;20083;-73
2022/03/28 07:39:21;;;;;;;8.32;6.03;;;;;;;17.62;53.33;101320.97;5032199;28;20030;-73
2022/03/28 07:41:47;;;;;;;10.88;7.93;;;;;;;17.91;51.44;101316.75;5031046;28;20073;-73
2022/03/28 07:44:13;;;;;;;9.95;7.55;;;;;;;18.18;51.36;101315.31;5031037;28;20131;-74
2022/03/28 07:46:39;;;;;;;9.65;7.65;;;;;;;18.25;50.48;101316.25;5031924;28;20069;-73
2022/03/28 07:49:04;;;;;;;10.05;7.53;;;;;;;18.24;50.48;101314.59;5035118;28;20044;-73
2022/03/28 07:51:29;;;;;;;8.65;6.95;;;;;;;18.50;50.00;101306.13;5030745;28;20029;-73
2022/03/28 07:53:55;;;;;;;9.02;6.65;;;;;;;18.88;49.58;101314.06;5031673;28;20041;-74
2022/03/28 07:56:21;;;;;;;9.63;7.68;;;;;;;19.29;48.85;101303.59;5031068;28;20056;-73
2022/03/28 07:58:47;;;;;;;7.22;5.85;;;;;;;19.58;48.75;101301.00;5031019;28;20425;-73
2022/03/28 08:01:12;;;;;;;8.10;5.72;;;;;;;19.85;48.23;101297.53;5036165;28;20049;-73
2022/03/28 08:03:38;;;;;;;6.80;5.32;;;;;;;20.07;48.08;101294.81;5027163;28;20497;-73
2022/03/28 08:06:03;;;;;;;7.88;5.70;;;;;;;20.31;47.36;101289.00;5031067;28;20122;-73
2022/03/28 08:08:31;;;;;;;5.80;4.82;;;;;;;20.74;47.13;101290.69;5030862;28;20485;-73
2022/03/28 08:10:57;;;;;;;8.00;5.40;;;;;;;21.20;45.87;101287.31;5038643;28;20049;-73
2022/03/28 08:13:22;;;;;;;7.13;5.40;;;;;;;21.42;44.83;101282.63;5024871;28;20117;-73
2022/03/28 08:15:48;;;;;;;7.47;5.40;;;;;;;21.62;44.55;101285.34;5030346;28;20040;-74
2022/03/28 08:18:15;;;;;;;8.68;6.28;;;;;;;21.80;43.59;101277.47;5029669;28;20413;-74
2022/03/28 08:20:41;;;;;;;9.20;6.53;;;;;;;21.83;43.39;101279.78;5024112;28;20477;-74
2022/03/28 08:23:06;;;;;;;10.50;7.85;;;;;;;21.89;42.01;101277.28;5028556;28;20064;-74
2022/03/28 08:25:32;;;;;;;9.93;8.02;;;;;;;22.01;41.19;101281.81;5026291;28;20493;-74
2022/03/28 08:27:58;;;;;;;9.15;6.60;;;;;;;21.99;41.41;101277.66;5035900;28;20059;-73
2022/03/28 08:30:26;;;;;;;11.18;7.45;;;;;;;22.27;41.06;101278.28;5033945;28;20034;-73
2022/03/28 08:32:52;;;;;;;8.35;6.55;;;;;;;22.55;40.92;101277.16;5021620;28;20128;-72
2022/03/28 08:35:17;;;;;;;10.85;8.88;;;;;;;22.83;39.52;101266.03;5021185;28;20124;-72
2022/03/28 08:37:43;;;;;;;8.77;6.50;;;;;;;22.86;39.55;101271.03;5022860;28;20398;-72
2022/03/28 08:40:09;;;;;;;8.45;6.68;;;;;;;23.44;39.32;101272.78;5028755;28;20444;-73
2022/03/28 08:42:34;;;;;;;12.20;7.50;;;;;;;23.79;37.95;101266.06;5030875;28;20033;-74
2022/03/28 08:45:00;;;;;;;8.30;5.85;;;;;;;24.15;37.60;101260.75;5028373;28;20038;-74
2022/03/28 08:47:26;;;;;;;11.57;9.07;;;;;;;24.46;35.78;101258.13;5025312;28;20045;-74
2022/03/28 08:49:53;;;;;;;8.18;6.32;;;;;;;24.47;36.35;101259.81;5031932;28;20040;-73
2022/03/28 08:52:20;;;;;;;7.55;6.05;;;;;;;24.84;35.88;101262.44;5036730;28;20080;-74
2022/03/28 08:54:46;;;;;;;9.23;7.55;;;;;;;25.04;34.99;101259.50;5033413;28;20033;-73
2022/03/28 08:57:13;;;;;;;9.32;8.32;;;;;;;25.17;33.91;101262.88;5020545;28;20461;-74
2022/03/28 08:59:40;;;;;;;8.40;7.28;;;;;;;25.09;33.54;101249.59;5035257;28;20034;-74
2022/03/28 09:02:05;;;;;;;9.77;7.97;;;;;;;25.18;33.57;101255.56;5026633;28;20034;-73
2022/03/28 09:04:36;;;;;;;7.97;5.60;;;;;;;25.77;33.79;101258.38;5030274;28;20493;-74
2022/03/28 09:07:01;;;;;;;10.93;7.10;;;;;;;26.28;32.81;101260.34;5021558;28;20557;-74
2022/03/28 09:09:29;;;;;;;11.43;7.45;;;;;;;26.78;32.20;101247.28;5012917;28;20117;-74
2022/03/28 09:11:58;;;;;;;6.68;5.47;;;;;;;27.23;31.70;101249.22;5018607;28;20396;-74
2022/03/28 09:14:32;;;;;;;6.30;4.97;;;;;;;27.68;31.42;101246.41;5020124;28;20042;-74
2022/03/28 09:17:09;;;;;;;6.97;5.30;;;;;;;27.81;30.56;101244.41;5013038;28;20497;-74
2022/03/28 09:19:42;;;;;;;11.05;7.25;;;;;;;28.16;30.10;101241.41;5017054;28;20033;-74
2022/03/28 09:22:20;;;;;;;9.30;6.30;;;;;;;28.58;29.48;101238.97;5019004;28;20121;-74
2022/03/28 09:24:48;;;;;;;9.82;6.70;;;;;;;28.92;28.84;101236.06;5009275;28;20169;-74
2022/03/28 09:27:20;;;;;;;9.57;7.50;;;;;;;29.24;28.23;101232.56;5013247;28;20038;-74
2022/03/28 09:30:00;;;;;;;6.53;5.75;;;;;;;29.19;27.75;101230.63;5034949;28;20041;-74
2022/03/28 09:32:38;;;;;;;6.40;5.22;;;;;;;29.39;28.07;101229.13;5018774;28;20061;-74
2022/03/28 09:35:07;;;;;;;6.53;4.97;;;;;;;29.62;28.12;101226.03;5021970;28;20037;-74
2022/03/28 09:38:04;;;;;;;6.35;5.30;;;;;;;30.13;27.74;101217.38;5011644;28;20030;-74
2022/03/28 09:40:39;;;;;;;6.38;5.10;;;;;;;30.54;27.05;101214.00;5027453;28;20037;-74
2022/03/28 09:43:24;;;;;;;10.80;7.10;;;;;;;29.99;26.61;101211.56;5026879;28;20033;-74
2022/03/28 09:45:51;;;;;;;7.57;5.72;;;;;;;30.60;25.93;101205.53;5022544;28;20040;-74
2022/03/28 09:48:19;;;;;;;8.95;6.25;;;;;;;30.93;25.90;101206.19;5025280;28;20064;-74
2022/03/28 09:50:49;;;;;;;10.57;8.52;;;;;;;31.19;24.46;101208.91;5025539;28;20544;-74
2022/03/28 09:53:31;;;;;;;9.95;7.13;;;;;;;31.08;24.72;101203.47;5028044;28;20045;-74
2022/03/28 09:55:59;;;;;;;;;;;;;;;31.12;24.58;101190.06;5026419;28;20385;-74
2022/03/28 09:58:35;;;;;;;8.30;6.38;;;;;;;31.40;24.39;101196.91;5019095;28;20393;-75
2022/03/28 10:01:04;;;;;;;7.30;5.82;;;;;;;31.42;24.16;101192.00;5019837;28;20053;-74
2022/03/28 10:03:36;;;;;;;9.60;7.47;;;;;;;31.10;24.08;101184.06;5024922;28;20040;-74
2022/03/28 10:12:47;;;;;;;7.93;6.28;;;;;;;32.16;23.18;101170.47;5019842;28;20405;-74
2022/03/28 10:15:12;;;;;;;8.13;6.53;;;;;;;32.20;23.07;101157.84;5025435;28;20037;-74
2022/03/28 10:17:39;;;;;;;7.37;6.63;;;;;;;32.53;22.71;101164.50;5029157;28;20235;-74
2022/03/28 10:20:05;;;;;;;7.95;6.40;;;;;;;32.45;22.15;101162.34;5027275;28;20284;-74
2022/03/28 10:22:35;;;;;;;7.90;6.70;;;;;;;32.73;22.34;101166.31;5026135;28;20099;-74
2022/03/28 10:25:08;;;;;;;6.07;5.38;;;;;;;33.09;22.74;101155.09;5029177;28;20041;-74
2022/03/28 10:27:36;;;;;;;6.75;5.25;;;;;;;33.60;22.01;101157.31;5035446;28;20041;-74
2022/03/28 10:30:18;;;;;;;5.55;4.47;;;;;;;34.28;21.71;101152.69;5022339;28;20041;-73
2022/03/28 10:32:43;;;;;;;6.05;5.40;;;;;;;34.43;21.27;101146.13;5023973;28;20040;-73
2022/03/28 10:35:10;;;;;;;8.25;6.32;;;;;;;34.48;20.71;101151.56;5024861;28;20033;-73
2022/03/28 10:37:44;;;;;;;7.43;5.70;;;;;;;34.91;20.22;101142.38;5027000;28;20080;-74
2022/03/28 10:40:15;;;;;;;7.97;6.40;;;;;;;35.01;19.78;101144.94;5026829;28;20521;-75
2022/03/28 10:42:46;;;;;;;6.85;5.22;;;;;;;35.41;19.33;101140.66;5024375;28;20041;-74
2022/03/28 10:45:18;;;;;;;6.15;5.13;;;;;;;35.27;19.56;101135.16;5022194;28;20030;-74
2022/03/28 10:47:55;;;;;;;5.80;4.90;;;;;;;34.99;19.75;101133.44;5026043;28;20917;-74
2022/03/28 10:50:36;;;;;;;5.18;4.20;;;;;;;35.46;19.70;101123.25;5036950;28;20501;-74
2022/03/28 10:53:41;;;;;;;6.63;5.88;;;;;;;35.78;19.30;101125.13;5028387;28;20091;-73
2022/03/28 10:56:13;;;;;;;5.50;4.90;;;;;;;36.09;19.26;101119.78;5021940;28;20285;-74
2022/03/28 10:58:44;;;;;;;7.10;5.65;;;;;;;36.23;18.62;101124.41;5031239;28;20438;-74
2022/03/28 11:01:12;;;;;;;7.22;5.68;;;;;;;35.94;18.54;101114.56;5027763;28;20115;-74
2022/03/28 11:03:52;;;;;;;6.68;5.32;;;;;;;35.63;18.61;101117.97;5031154;28;20045;-73
2022/03/28 11:06:39;;;;;;;8.98;6.80;;;;;;;36.31;17.72;101113.50;5028770;28;20029;-74
2022/03/28 11:09:05;;;;;;;8.23;5.90;;;;;;;36.59;17.55;101098.81;5026287;28;20620;-74
2022/03/28 11:11:33;;;;;;;9.50;6.88;;;;;;;36.34;17.00;101099.09;5029501;28;20053;-73
2022/03/28 11:14:08;;;;;;;7.05;5.30;;;;;;;36.73;17.11;101094.88;5030598;28;20375;-74
2022/03/28 11:17:05;;;;;;;9.02;7.03;;;;;;;36.81;16.06;101089.72;5030687;28;20033;-74
2022/03/28 11:19:33;;;;;;;11.05;6.90;;;;;;;37.18;15.87;101085.69;5028807;28;20029;-73
2022/03/28 11:22:01;;;;;;;9.82;5.80;;;;;;;37.17;15.69;101078.56;5033362;28;20037;-73
2022/03/28 11:24:57;;;;;;;9.00;7.25;;;;;;;36.76;15.53;101077.69;5041443;28;20432;-74
2022/03/28 11:27:28;;;;;;;10.85;7.03;;;;;;;36.59;15.87;101072.09;5029139;28;20080;-73
2022/03/28 11:30:10;;;;;;;9.80;6.30;;;;;;;36.66;16.00;101072.47;5020239;28;20034;-74
2022/03/28 11:32:37;;;;;;;10.38;6.82;;;;;;;36.80;15.47;101066.03;5030480;28;20037;-73
2022/03/28 11:35:04;;;;;;;10.30;7.00;;;;;;;37.01;15.04;101061.59;5026603;28;20033;-74
2022/03/28 11:37:30;;;;;;;8.70;6.95;;;;;;;37.54;14.65;101049.69;5035531;28;20574;-73
2022/03/28 11:40:03;;;;;;;11.45;7.78;;;;;;;37.10;14.30;101050.66;5033625;28;20120;-73